Time;durP1;ratioP1;P1;durP2;ratioP2;P2;SDS_P1;SDS_P2;PMS_P1;PMS_P2;Temp;Humidity;BMP_temperature;BMP_pressure;BME280_temperature;BME280_humidity;BME280_pressure;Samples;Min_cycle;Max_cycle;Signal;HPM_P1;HPM_P2
2023/04/16 00:01:26;;;;;;;3.20;1.92;;;;;;;5.11;100.00;93771.38;4988357;28;20045;-61
2023/04/16 00:03:54;;;;;;;3.00;2.00;;;;;;;4.82;100.00;93759.63;4990749;28;20408;-60
2023/04/16 00:06:21;;;;;;;3.08;1.70;;;;;;;4.91;100.00;93754.59;4990807;28;20046;-61
2023/04/16 00:08:49;;;;;;;3.60;2.03;;;;;;;4.95;100.00;93763.53;4988609;28;20398;-60
2023/04/16 00:11:16;;;;;;;2.80;1.60;;;;;;;5.02;100.00;93760.84;4988592;28;20454;-59
2023/04/16 00:13:43;;;;;;;2.90;1.55;;;;;;;4.88;100.00;93763.53;4987093;28;20051;-60
2023/04/16 00:16:10;;;;;;;7.63;4.20;;;;;;;5.08;100.00;93763.97;4987954;28;20380;-61
2023/04/16 00:18:36;;;;;;;3.67;1.80;;;;;;;4.99;100.00;93762.41;4989427;28;20042;-61
2023/04/16 00:21:03;;;;;;;3.35;2.15;;;;;;;4.93;100.00;93768.59;4989969;28;20046;-62
2023/04/16 00:23:30;;;;;;;3.60;2.10;;;;;;;4.89;100.00;93760.44;4981725;28;20046;-59
2023/04/16 00:25:58;;;;;;;4.10;2.70;;;;;;;4.97;100.00;93767.44;4990177;28;20112;-59
2023/04/16 00:28:28;;;;;;;3.90;2.60;;;;;;;5.00;100.00;93768.63;4988025;28;20085;-59
2023/04/16 00:30:55;;;;;;;3.70;2.20;;;;;;;4.98;100.00;93770.94;4989763;28;20034;-60
2023/04/16 00:33:22;;;;;;;3.90;2.40;;;;;;;5.16;100.00;93765.56;4989346;28;20042;-60
2023/04/16 00:35:50;;;;;;;3.70;2.33;;;;;;;5.16;100.00;93771.00;4987191;28;20487;-59
2023/04/16 00:38:16;;;;;;;3.85;2.30;;;;;;;5.18;100.00;93776.84;4989671;28;20454;-60
2023/04/16 00:40:43;;;;;;;3.90;2.55;;;;;;;5.10;100.00;93770.59;4986510;28;20061;-62
2023/04/16 00:43:10;;;;;;;3.95;2.35;;;;;;;5.21;100.00;93767.88;4986973;28;20050;-61
2023/04/16 00:45:37;;;;;;;6.40;3.10;;;;;;;5.17;100.00;93775.25;4989375;28;20430;-60
2023/04/16 00:48:04;;;;;;;5.50;2.90;;;;;;;5.14;100.00;93774.09;4989781;28;20538;-59
2023/04/16 00:50:32;;;;;;;3.97;2.15;;;;;;;5.08;100.00;93772.16;4988783;28;20046;-60
2023/04/16 00:53:00;;;;;;;4.57;2.92;;;;;;;4.93;100.00;93774.03;4988990;28;20483;-60
2023/04/16 00:55:27;;;;;;;4.22;2.40;;;;;;;4.90;100.00;93772.84;4982381;28;20389;-62
2023/04/16 00:57:54;;;;;;;4.35;2.50;;;;;;;5.14;100.00;93776.03;4986544;28;20488;-61
2023/04/16 01:00:20;;;;;;;4.23;2.50;;;;;;;5.27;100.00;93776.47;4989430;28;20042;-60
2023/04/16 01:02:47;;;;;;;3.60;2.30;;;;;;;5.24;100.00;93774.53;4989077;28;20462;-60
2023/04/16 01:05:14;;;;;;;3.90;2.38;;;;;;;5.15;100.00;93772.16;4989528;28;20501;-61
2023/04/16 01:07:41;;;;;;;3.90;2.20;;;;;;;5.26;100.00;93774.91;4988420;28;20046;-59
2023/04/16 01:10:08;;;;;;;3.75;2.30;;;;;;;5.16;100.00;93779.94;4988705;28;20047;-62
2023/04/16 01:12:34;;;;;;;3.70;2.40;;;;;;;5.15;100.00;93783.84;4988309;28;20062;-59
2023/04/16 01:15:02;;;;;;;3.55;2.00;;;;;;;5.25;100.00;93778.78;4988261;28;20046;-60
2023/04/16 01:17:28;;;;;;;3.53;2.13;;;;;;;5.24;100.00;93788.91;4987400;28;20518;-60
2023/04/16 01:19:59;;;;;;;12.45;6.72;;;;;;;5.27;100.00;93779.19;4988558;28;20060;-60
2023/04/16 01:22:28;;;;;;;4.13;2.60;;;;;;;5.07;100.00;93779.53;4988374;28;20050;-60
2023/04/16 01:24:55;;;;;;;3.10;1.63;;;;;;;5.16;100.00;93781.88;4988411;28;20043;-61
2023/04/16 01:27:22;;;;;;;3.83;2.33;;;;;;;5.04;100.00;93782.22;4989097;28;20049;-59
2023/04/16 01:29:48;;;;;;;3.30;1.98;;;;;;;5.13;100.00;93785.34;4987985;28;20406;-59
2023/04/16 01:32:15;;;;;;;3.55;2.10;;;;;;;5.14;100.00;93779.53;4988501;28;20046;-60
2023/04/16 01:34:42;;;;;;;3.30;2.03;;;;;;;5.13;100.00;93785.34;4987292;28;20050;-62
2023/04/16 01:37:09;;;;;;;3.10;1.90;;;;;;;5.15;100.00;93783.03;4988696;28;20050;-62
2023/04/16 01:39:35;;;;;;;2.97;1.77;;;;;;;5.13;100.00;93790.78;4987863;28;20042;-62
2023/04/16 01:42:02;;;;;;;3.40;1.80;;;;;;;5.06;100.00;93788.84;4988578;28;20446;-60
2023/04/16 01:44:29;;;;;;;2.63;1.50;;;;;;;5.04;100.00;93787.69;4986598;28;20042;-62
2023/04/16 01:46:56;;;;;;;3.10;1.90;;;;;;;5.10;100.00;93792.34;4988871;28;20057;-62
2023/04/16 01:49:23;;;;;;;3.40;1.90;;;;;;;5.06;100.00;93797.00;4988670;28;20054;-61
2023/04/16 01:51:50;;;;;;;3.65;2.10;;;;;;;5.12;100.00;93792.75;4986910;28;20047;-60
2023/04/16 01:54:17;;;;;;;3.20;2.13;;;;;;;5.05;100.00;93798.19;4988025;28;20060;-61
2023/04/16 01:56:43;;;;;;;3.17;1.77;;;;;;;5.09;100.00;93790.00;4988050;28;20038;-59
2023/04/16 01:59:11;;;;;;;3.78;2.10;;;;;;;5.12;100.00;93792.75;4988297;28;20513;-61
2023/04/16 02:01:38;;;;;;;3.40;1.90;;;;;;;5.03;100.00;93794.25;4987473;28;20042;-60
2023/04/16 02:04:05;;;;;;;3.42;2.05;;;;;;;5.07;100.00;93792.34;4988651;28;20387;-60
2023/04/16 02:06:32;;;;;;;3.65;2.17;;;;;;;5.02;100.00;93790.78;4988068;28;20042;-60
2023/04/16 02:08:58;;;;;;;3.70;2.15;;;;;;;5.17;100.00;93794.31;4988007;28;20076;-60
2023/04/16 02:11:25;;;;;;;3.45;2.03;;;;;;;5.11;100.00;93784.97;4990135;28;20436;-59
2023/04/16 02:13:52;;;;;;;3.30;1.87;;;;;;;5.07;100.00;93786.91;4991960;28;20084;-60
2023/04/16 02:16:18;;;;;;;3.67;1.90;;;;;;;5.03;100.00;93781.47;4990383;28;20038;-61
2023/04/16 02:18:45;;;;;;;3.72;2.28;;;;;;;5.10;100.00;93794.31;4991977;28;20496;-60
2023/04/16 02:21:12;;;;;;;4.10;2.40;;;;;;;5.14;100.00;93790.41;4991878;28;20043;-59
2023/04/16 02:23:40;;;;;;;4.22;2.40;;;;;;;5.17;100.00;93792.38;4991353;28;20046;-58
2023/04/16 02:26:07;;;;;;;4.20;2.47;;;;;;;5.10;100.00;93794.31;4992003;28;20037;-59
2023/04/16 02:28:33;;;;;;;4.05;2.45;;;;;;;5.18;100.00;93793.94;4991420;28;20077;-61
2023/04/16 02:31:00;;;;;;;5.18;3.00;;;;;;;5.22;100.00;93802.09;4991814;28;20050;-61
2023/04/16 02:33:27;;;;;;;6.97;3.63;;;;;;;5.27;100.00;93793.59;4991631;28;20380;-60
2023/04/16 02:35:54;;;;;;;4.32;2.78;;;;;;;5.14;100.00;93797.81;4989600;28;20111;-60
2023/04/16 02:38:21;;;;;;;4.70;2.60;;;;;;;5.31;100.00;93802.53;4992021;28;20517;-58
2023/04/16 02:40:47;;;;;;;4.63;2.78;;;;;;;5.18;100.00;93795.88;4973549;28;20161;-59
2023/04/16 02:43:14;;;;;;;4.00;2.40;;;;;;;5.19;100.00;93800.13;4991670;28;20068;-61
2023/04/16 02:45:41;;;;;;;4.30;2.58;;;;;;;5.11;100.00;93796.66;4991175;28;20046;-60
2023/04/16 02:48:08;;;;;;;4.30;2.38;;;;;;;5.32;100.00;93798.63;4991679;28;20459;-59
2023/04/16 02:50:35;;;;;;;4.23;2.50;;;;;;;5.29;100.00;93798.63;4991362;28;20053;-60
2023/04/16 02:53:03;;;;;;;4.63;2.75;;;;;;;5.33;100.00;93797.50;4991436;28;20096;-59
2023/04/16 02:55:29;;;;;;;4.93;2.80;;;;;;;5.20;100.00;93801.72;4988919;28;20064;-59
2023/04/16 02:57:56;;;;;;;4.47;2.65;;;;;;;5.36;100.00;93795.94;4991784;28;20394;-59
2023/04/16 03:00:23;;;;;;;5.18;2.90;;;;;;;5.36;100.00;93793.97;4991148;28;20050;-60
2023/04/16 03:02:49;;;;;;;4.27;2.70;;;;;;;5.47;100.00;93796.72;4990424;28;20042;-60
2023/04/16 03:05:16;;;;;;;5.63;3.45;;;;;;;5.55;100.00;93808.41;4991500;28;20038;-59
2023/04/16 03:07:43;;;;;;;4.47;2.63;;;;;;;5.44;100.00;93794.78;4990488;28;20121;-59
2023/04/16 03:10:10;;;;;;;3.90;2.33;;;;;;;5.46;100.00;93788.97;4990840;28;20062;-61
2023/04/16 03:12:38;;;;;;;3.83;2.25;;;;;;;5.44;100.00;93804.91;4991026;28;20050;-61
2023/04/16 03:15:05;;;;;;;4.00;2.50;;;;;;;5.44;100.00;93805.66;4985994;28;20039;-61
2023/04/16 03:17:31;;;;;;;3.60;2.20;;;;;;;5.46;100.00;93805.28;4986065;28;20049;-59
2023/04/16 03:19:58;;;;;;;3.20;2.03;;;;;;;5.28;100.00;93808.72;4970982;28;20383;-59
2023/04/16 03:22:25;;;;;;;3.85;2.33;;;;;;;5.34;100.00;93800.97;4970733;28;20043;-59
2023/04/16 03:24:52;;;;;;;4.20;2.50;;;;;;;5.35;100.00;93808.78;4971254;28;20043;-59
2023/04/16 03:27:19;;;;;;;3.50;2.00;;;;;;;5.34;100.00;93804.47;4971353;28;20120;-60
2023/04/16 03:29:46;;;;;;;3.40;2.08;;;;;;;5.43;100.00;93801.38;4985456;28;20046;-60
2023/04/16 03:32:12;;;;;;;3.92;2.40;;;;;;;5.41;100.00;93792.81;4971450;28;20078;-59
2023/04/16 03:34:39;;;;;;;4.18;2.45;;;;;;;5.42;100.00;93799.06;4974354;28;20046;-59
2023/04/16 03:37:07;;;;;;;3.58;2.10;;;;;;;5.41;100.00;93809.16;4989719;28;20042;-59
2023/04/16 03:39:34;;;;;;;3.37;2.00;;;;;;;5.35;100.00;93806.03;4990359;28;20050;-59
2023/04/16 03:42:01;;;;;;;3.72;2.40;;;;;;;5.45;100.00;93807.22;4989957;28;20050;-60
2023/04/16 03:44:28;;;;;;;3.60;2.10;;;;;;;5.32;100.00;93800.59;4990464;28;20042;-58
2023/04/16 03:46:55;;;;;;;3.65;2.10;;;;;;;5.43;100.00;93800.59;4990389;28;20046;-59
2023/04/16 03:49:22;;;;;;;3.20;2.20;;;;;;;5.42;100.00;93804.50;4990666;28;20044;-61
2023/04/16 03:51:48;;;;;;;3.50;2.17;;;;;;;5.56;100.00;93809.97;4989567;28;20414;-59
2023/04/16 03:54:15;;;;;;;3.42;2.05;;;;;;;5.43;100.00;93797.88;4989231;28;20200;-59
2023/04/16 03:56:42;;;;;;;3.05;2.00;;;;;;;5.44;100.00;93802.94;4989654;28;20415;-60
2023/04/16 03:59:09;;;;;;;3.38;2.10;;;;;;;5.50;100.00;93804.13;4990694;28;20058;-60
2023/04/16 04:01:36;;;;;;;3.33;2.03;;;;;;;5.49;100.00;93805.28;4990212;28;20085;-59
2023/04/16 04:04:02;;;;;;;3.47;2.10;;;;;;;5.48;100.00;93800.25;4990025;28;20038;-59
2023/04/16 04:06:29;;;;;;;3.10;1.92;;;;;;;5.45;100.00;93806.44;4989839;28;20453;-59
2023/04/16 04:08:57;;;;;;;3.40;1.98;;;;;;;5.31;100.00;93807.19;4990036;28;20388;-61
2023/04/16 04:11:25;;;;;;;3.90;2.30;;;;;;;5.37;100.00;93809.16;4989787;28;20527;-59
2023/04/16 04:13:51;;;;;;;3.50;2.10;;;;;;;5.38;100.00;93810.69;4988900;28;21728;-61
2023/04/16 04:16:18;;;;;;;3.50;1.90;;;;;;;5.48;100.00;93811.91;4988857;28;20470;-59
2023/04/16 04:18:45;;;;;;;5.90;2.10;;;;;;;5.47;100.00;93806.84;4989352;28;20143;-59
2023/04/16 04:21:11;;;;;;;3.40;2.03;;;;;;;5.44;100.00;93808.38;4989975;28;20447;-58
2023/04/16 04:23:40;;;;;;;3.80;2.30;;;;;;;5.45;100.00;93812.66;4989811;28;20053;-59
2023/04/16 04:26:07;;;;;;;4.20;2.30;;;;;;;5.33;100.00;93813.00;4989512;28;20038;-59
2023/04/16 04:28:34;;;;;;;3.37;1.93;;;;;;;5.33;100.00;93815.72;4989285;28;20046;-60
2023/04/16 04:31:01;;;;;;;3.85;2.28;;;;;;;5.39;100.00;93814.19;4989444;28;20167;-61
2023/04/16 04:33:28;;;;;;;3.22;1.70;;;;;;;5.39;100.00;93825.09;4989085;28;20053;-60
2023/04/16 04:35:55;;;;;;;3.45;2.00;;;;;;;5.28;100.00;93824.28;4989742;28;20038;-59
2023/04/16 04:38:24;;;;;;;3.00;1.90;;;;;;;5.38;100.00;93823.53;4989713;28;20046;-58
2023/04/16 04:40:51;;;;;;;3.17;1.80;;;;;;;5.34;100.00;93831.69;4986187;28;20418;-59
2023/04/16 04:43:21;;;;;;;2.90;1.50;;;;;;;5.36;100.00;93828.59;4970228;28;20087;-59
2023/04/16 04:45:48;;;;;;;3.28;2.20;;;;;;;5.28;100.00;93835.94;4969578;28;20467;-58
2023/04/16 04:48:15;;;;;;;3.40;2.20;;;;;;;5.23;100.00;93832.81;4970036;28;20439;-59
2023/04/16 04:50:44;;;;;;;3.60;1.98;;;;;;;5.27;100.00;93841.75;4969483;28;20077;-61
2023/04/16 04:53:13;;;;;;;3.43;2.00;;;;;;;5.35;100.00;93835.97;4969814;28;20039;-59
2023/04/16 04:55:40;;;;;;;4.20;2.10;;;;;;;5.43;100.00;93839.47;4969331;28;20051;-60
2023/04/16 04:58:07;;;;;;;3.78;2.15;;;;;;;5.33;100.00;93843.75;4969345;28;20435;-59
2023/04/16 05:00:35;;;;;;;3.40;2.00;;;;;;;5.33;100.00;93845.66;4971276;28;20054;-60
2023/04/16 05:03:04;;;;;;;3.70;2.40;;;;;;;5.40;100.00;93851.91;4985683;28;20050;-59
2023/04/16 05:05:31;;;;;;;4.03;2.33;;;;;;;5.27;100.00;93858.09;4988253;28;20361;-59
2023/04/16 05:07:58;;;;;;;4.32;2.38;;;;;;;5.30;100.00;93857.34;4989059;28;20292;-60
2023/04/16 05:10:25;;;;;;;3.80;2.20;;;;;;;5.35;100.00;93863.19;4988569;28;20060;-59
2023/04/16 05:12:52;;;;;;;3.28;2.10;;;;;;;5.49;100.00;93854.25;4989349;28;20038;-58
2023/04/16 05:15:19;;;;;;;3.78;2.17;;;;;;;5.54;100.00;93862.06;4989170;28;20060;-59
2023/04/16 05:17:45;;;;;;;3.67;2.17;;;;;;;5.43;100.00;93866.69;4974523;28;20462;-59
2023/04/16 05:20:12;;;;;;;3.50;2.13;;;;;;;5.53;100.00;93870.63;4989103;28;20111;-62
2023/04/16 05:22:39;;;;;;;4.20;2.55;;;;;;;5.58;100.00;93867.53;4980363;28;20056;-60
2023/04/16 05:25:06;;;;;;;4.45;2.20;;;;;;;5.64;100.00;93876.88;4988930;28;20080;-59
2023/04/16 05:27:32;;;;;;;3.72;2.22;;;;;;;5.64;100.00;93874.16;4988280;28;20099;-58
2023/04/16 05:29:59;;;;;;;3.90;2.30;;;;;;;5.59;100.00;93878.03;4987501;28;20031;-59
2023/04/16 05:32:26;;;;;;;4.30;2.53;;;;;;;5.49;100.00;93878.75;4988441;28;20039;-60
2023/04/16 05:34:53;;;;;;;4.72;2.83;;;;;;;5.42;100.00;93880.72;4988835;28;20150;-61
2023/04/16 05:37:20;;;;;;;5.25;2.60;;;;;;;5.58;100.00;93890.09;4988951;28;20042;-59
2023/04/16 05:39:46;;;;;;;5.40;2.60;;;;;;;5.64;100.00;93885.06;4988435;28;20058;-58
2023/04/16 05:42:13;;;;;;;6.70;3.00;;;;;;;5.66;100.00;93885.44;4986585;28;20043;-61
2023/04/16 05:44:40;;;;;;;5.05;2.45;;;;;;;5.73;100.00;93899.06;4987458;28;20119;-61
2023/04/16 05:47:08;;;;;;;4.30;2.58;;;;;;;5.64;100.00;93890.50;4988855;28;20035;-59
2023/04/16 05:49:38;;;;;;;4.43;2.63;;;;;;;5.66;100.00;93896.34;4988191;28;20058;-61
2023/04/16 05:52:05;;;;;;;5.20;2.97;;;;;;;5.80;100.00;93892.88;4988541;28;20046;-59
2023/04/16 05:54:31;;;;;;;5.70;3.13;;;;;;;5.77;100.00;93899.09;4988230;28;20089;-61
2023/04/16 05:56:59;;;;;;;5.03;2.75;;;;;;;5.71;100.00;93895.16;4988919;28;20046;-61
2023/04/16 05:59:26;;;;;;;4.78;2.60;;;;;;;5.78;100.00;93897.94;4988235;28;20038;-59
2023/04/16 06:01:53;;;;;;;4.90;3.13;;;;;;;5.85;100.00;93897.94;4988578;28;20121;-59
2023/04/16 06:04:20;;;;;;;5.18;3.33;;;;;;;6.06;100.00;93899.19;4988237;28;20411;-59
2023/04/16 06:06:47;;;;;;;5.63;3.27;;;;;;;6.04;100.00;93902.28;4988340;28;20420;-60
2023/04/16 06:09:13;;;;;;;4.88;2.67;;;;;;;5.89;100.00;93895.22;4987125;28;20042;-61
2023/04/16 06:11:40;;;;;;;5.53;3.78;;;;;;;6.02;100.00;93903.81;4987743;28;20054;-59
2023/04/16 06:14:07;;;;;;;4.50;2.67;;;;;;;5.91;100.00;93899.09;4988735;28;20030;-59
2023/04/16 06:16:33;;;;;;;3.85;2.40;;;;;;;5.76;100.00;93886.63;4987990;28;20057;-59
2023/04/16 06:19:00;;;;;;;4.83;2.63;;;;;;;5.96;100.00;93889.84;4986949;28;20046;-60
2023/04/16 06:21:27;;;;;;;7.75;4.57;;;;;;;6.05;100.00;93892.16;4987842;28;20349;-60
2023/04/16 06:23:55;;;;;;;4.70;2.83;;;;;;;5.89;100.00;93901.44;4983697;28;20047;-59
2023/04/16 06:26:21;;;;;;;4.07;2.05;;;;;;;5.93;100.00;93902.22;4980583;28;20056;-60
2023/04/16 06:28:49;;;;;;;4.57;2.72;;;;;;;6.05;100.00;93901.13;4987844;28;20487;-58
2023/04/16 06:31:16;;;;;;;4.53;2.80;;;;;;;6.14;100.00;93906.97;4988292;28;20046;-60
2023/04/16 06:33:42;;;;;;;4.90;3.00;;;;;;;6.11;100.00;93907.75;4987578;28;20051;-60
2023/04/16 06:36:10;;;;;;;5.45;3.35;;;;;;;5.90;100.00;93913.91;4988290;28;20438;-59
2023/04/16 06:38:37;;;;;;;7.18;3.80;;;;;;;5.98;100.00;93909.28;4974948;28;20038;-59
2023/04/16 06:41:04;;;;;;;6.68;3.95;;;;;;;5.98;100.00;93912.78;4982597;28;20053;-61
2023/04/16 06:43:32;;;;;;;6.13;3.70;;;;;;;5.94;100.00;93920.13;4984760;28;20050;-60
2023/04/16 06:45:59;;;;;;;6.03;3.53;;;;;;;5.89;100.00;93922.47;4988242;28;20038;-58
2023/04/16 06:48:26;;;;;;;8.30;4.38;;;;;;;6.12;100.00;93920.22;4986443;28;20038;-59
2023/04/16 06:50:54;;;;;;;8.60;4.82;;;;;;;6.28;100.00;93919.84;4988320;28;20062;-59
2023/04/16 06:53:22;;;;;;;8.68;5.03;;;;;;;6.19;100.00;93924.88;4988294;28;20047;-59
2023/04/16 06:55:50;;;;;;;9.83;5.07;;;;;;;6.29;100.00;93924.13;4990344;28;20112;-59
2023/04/16 06:58:17;;;;;;;9.73;5.20;;;;;;;6.27;100.00;93921.00;4990088;28;20423;-61
2023/04/16 07:00:44;;;;;;;5.78;3.30;;;;;;;6.09;100.00;93928.38;4991213;28;20038;-59
2023/04/16 07:03:11;;;;;;;8.18;4.68;;;;;;;6.09;100.00;93931.88;4990064;28;20327;-60
2023/04/16 07:05:38;;;;;;;6.15;3.58;;;;;;;5.92;100.00;93930.66;4991017;28;20054;-59
2023/04/16 07:08:05;;;;;;;8.00;4.53;;;;;;;5.96;100.00;93927.97;4991299;28;20373;-60
2023/04/16 07:10:31;;;;;;;9.55;5.28;;;;;;;5.93;100.00;93931.41;4990116;28;20407;-59
2023/04/16 07:13:00;;;;;;;7.97;4.43;;;;;;;5.78;100.00;93938.78;4991291;28;20034;-59
2023/04/16 07:15:27;;;;;;;5.78;3.15;;;;;;;6.01;100.00;93938.47;4990846;28;20038;-60
2023/04/16 07:17:54;;;;;;;5.55;3.03;;;;;;;6.05;100.00;93928.34;4991544;28;20044;-60
2023/04/16 07:20:21;;;;;;;5.60;2.93;;;;;;;6.20;100.00;93938.13;4990145;28;20034;-60
2023/04/16 07:22:48;;;;;;;5.82;3.33;;;;;;;6.13;100.00;93935.38;4990914;28;20044;-62
2023/04/16 07:25:15;;;;;;;5.97;3.33;;;;;;;6.14;100.00;93936.19;4991377;28;20034;-60
2023/04/16 07:27:41;;;;;;;5.78;3.20;;;;;;;6.24;100.00;93940.06;4989421;28;20068;-60
2023/04/16 07:30:08;;;;;;;6.50;3.38;;;;;;;6.26;100.00;93940.44;4991086;28;20073;-60
2023/04/16 07:32:35;;;;;;;6.20;3.23;;;;;;;6.16;100.00;93940.06;4990824;28;20050;-61
2023/04/16 07:35:02;;;;;;;4.80;2.65;;;;;;;6.28;100.00;93946.28;4977375;28;20049;-60
2023/04/16 07:37:29;;;;;;;4.70;2.83;;;;;;;6.31;100.00;93949.03;4989159;28;20161;-62
2023/04/16 07:39:56;;;;;;;4.93;2.95;;;;;;;6.28;100.00;93947.09;4990869;28;20055;-60
2023/04/16 07:42:23;;;;;;;4.57;2.75;;;;;;;6.56;100.00;93949.06;4987283;28;20058;-60
2023/04/16 07:44:50;;;;;;;3.97;2.20;;;;;;;6.48;100.00;93946.72;4990477;28;20043;-60
2023/04/16 07:47:16;;;;;;;5.18;2.58;;;;;;;6.38;100.00;93948.28;4990987;28;20068;-62
2023/04/16 07:49:43;;;;;;;4.00;2.45;;;;;;;6.73;100.00;93949.47;4990328;28;20058;-61
2023/04/16 07:52:10;;;;;;;4.53;2.38;;;;;;;6.30;100.00;93944.75;4990659;28;20068;-61
2023/04/16 07:54:37;;;;;;;4.57;2.20;;;;;;;6.26;100.00;93948.63;4990203;28;20084;-61
2023/04/16 07:57:04;;;;;;;3.40;2.07;;;;;;;6.50;100.00;93955.28;4990418;28;20050;-60
2023/04/16 07:59:30;;;;;;;3.38;1.80;;;;;;;6.14;100.00;93961.47;4989906;28;20056;-62
2023/04/16 08:01:57;;;;;;;3.67;2.20;;;;;;;6.27;100.00;93955.66;4990370;28;20038;-61
2023/04/16 08:04:24;;;;;;;3.92;1.98;;;;;;;6.30;100.00;93972.03;4989126;28;20440;-60
2023/04/16 08:06:52;;;;;;;4.07;2.50;;;;;;;6.36;100.00;93970.47;4988806;28;20834;-60
2023/04/16 08:09:20;;;;;;;4.27;2.30;;;;;;;6.53;100.00;93968.91;4990350;28;20050;-60
2023/04/16 08:11:48;;;;;;;4.45;2.22;;;;;;;6.32;100.00;93974.38;4989898;28;20052;-62
2023/04/16 08:14:16;;;;;;;5.20;3.08;;;;;;;6.70;100.00;93974.78;4990059;28;20405;-60
2023/04/16 08:16:43;;;;;;;3.80;2.30;;;;;;;6.65;100.00;93980.63;4988353;28;20057;-62
2023/04/16 08:19:09;;;;;;;3.90;2.17;;;;;;;6.67;100.00;93981.78;4986101;28;20073;-63
2023/04/16 08:21:36;;;;;;;4.00;2.40;;;;;;;6.30;100.00;93991.09;4981018;28;20051;-60
2023/04/16 08:24:04;;;;;;;4.10;2.20;;;;;;;6.44;100.00;93984.91;4989766;28;20089;-62
2023/04/16 08:26:31;;;;;;;3.90;2.42;;;;;;;6.34;100.00;93988.38;4989719;28;20042;-60
2023/04/16 08:28:58;;;;;;;4.57;2.40;;;;;;;6.52;100.00;93994.63;4989897;28;20092;-60
2023/04/16 08:31:25;;;;;;;4.63;2.55;;;;;;;6.50;100.00;93994.25;4989979;28;20600;-61
2023/04/16 08:33:51;;;;;;;3.80;2.13;;;;;;;6.64;100.00;94004.41;4987485;28;21537;-61
2023/04/16 08:36:19;;;;;;;3.30;1.92;;;;;;;6.94;100.00;94001.28;4989973;28;20482;-63
2023/04/16 08:38:46;;;;;;;4.35;2.40;;;;;;;6.61;100.00;93999.72;4989324;28;20092;-61
2023/04/16 08:41:13;;;;;;;4.28;2.20;;;;;;;6.75;100.00;93997.00;4984214;28;20050;-62
2023/04/16 08:43:43;;;;;;;3.88;2.20;;;;;;;6.60;100.00;93992.72;4985226;28;20097;-60
2023/04/16 08:46:11;;;;;;;3.53;2.00;;;;;;;6.91;100.00;93995.84;4989668;28;20047;-60
2023/04/16 08:48:41;;;;;;;4.07;2.20;;;;;;;6.93;100.00;94002.44;4986902;28;20387;-61
2023/04/16 08:51:10;;;;;;;3.72;2.20;;;;;;;7.05;100.00;94012.19;4979317;28;20044;-61
2023/04/16 08:54:07;;;;;;;3.92;2.50;;;;;;;6.40;100.00;94009.41;4974850;28;20043;-61
2023/04/16 08:56:36;;;;;;;4.20;2.58;;;;;;;6.44;100.00;94014.88;4987157;28;20054;-61
2023/04/16 08:59:06;;;;;;;4.43;2.47;;;;;;;6.73;100.00;94012.97;4989072;28;20046;-62
2023/04/16 09:01:34;;;;;;;6.43;3.15;;;;;;;6.41;100.00;94023.81;4988619;28;20077;-61
2023/04/16 09:04:01;;;;;;;6.05;3.60;;;;;;;6.65;100.00;94025.03;4989369;28;20038;-62
2023/04/16 09:06:30;;;;;;;5.93;3.55;;;;;;;6.47;100.00;94022.28;4988951;28;20054;-60
2023/04/16 09:08:58;;;;;;;5.85;3.42;;;;;;;6.49;100.00;94030.84;4989325;28;20430;-62
2023/04/16 09:11:25;;;;;;;6.03;3.47;;;;;;;6.50;100.00;94032.41;4989066;28;20046;-61
2023/04/16 09:13:52;;;;;;;6.72;3.67;;;;;;;6.51;100.00;94027.75;4988337;28;20841;-61
2023/04/16 09:16:20;;;;;;;6.50;3.60;;;;;;;6.25;100.00;94031.56;4955917;28;20042;-60
2023/04/16 09:18:46;;;;;;;7.35;3.92;;;;;;;6.23;100.00;94033.91;4986507;28;20042;-60
2023/04/16 09:21:14;;;;;;;7.93;3.92;;;;;;;6.26;100.00;94035.84;4987684;28;20050;-61
2023/04/16 09:23:40;;;;;;;6.93;3.67;;;;;;;6.27;100.00;94027.28;4988509;28;20057;-60
2023/04/16 09:26:07;;;;;;;6.07;3.55;;;;;;;6.33;100.00;94044.06;4988774;28;20047;-61
2023/04/16 09:28:42;;;;;;;7.38;4.07;;;;;;;6.63;100.00;94037.50;4988572;28;20057;-63
2023/04/16 09:31:08;;;;;;;9.32;5.32;;;;;;;6.73;100.00;94037.50;4988787;28;20050;-60
2023/04/16 09:33:35;;;;;;;5.40;3.35;;;;;;;6.69;100.00;94039.44;4987289;28;20415;-61
2023/04/16 09:36:02;;;;;;;6.03;3.60;;;;;;;6.67;100.00;94043.75;4988594;28;20451;-61
2023/04/16 09:38:49;;;;;;;5.65;3.65;;;;;;;6.58;100.00;94044.13;4988484;28;20424;-62
2023/04/16 09:41:16;;;;;;;6.40;3.83;;;;;;;6.74;100.00;94052.72;4969890;28;20043;-62
2023/04/16 09:44:00;;;;;;;5.55;3.10;;;;;;;6.48;100.00;94047.59;4981986;28;20042;-61
2023/04/16 09:46:33;;;;;;;4.80;2.90;;;;;;;6.75;100.00;94053.50;4978066;28;20462;-61
2023/04/16 09:49:18;;;;;;;6.10;3.30;;;;;;;6.51;100.00;94049.56;4988612;28;20041;-64
2023/04/16 09:51:48;;;;;;;7.97;4.47;;;;;;;6.56;100.00;94051.88;4988454;28;20059;-61
2023/04/16 09:54:15;;;;;;;8.05;5.15;;;;;;;6.64;100.00;94045.31;4988591;28;20046;-61
2023/04/16 09:56:45;;;;;;;7.93;4.63;;;;;;;6.69;100.00;94057.78;4988270;28;20488;-63
2023/04/16 09:59:22;;;;;;;8.48;5.25;;;;;;;6.85;100.00;94055.44;4988473;28;20045;-62
2023/04/16 10:01:49;;;;;;;9.53;5.13;;;;;;;6.70;100.00;94064.78;4988294;28;20072;-61
2023/04/16 10:04:16;;;;;;;8.30;5.15;;;;;;;6.56;100.00;94060.88;4988527;28;20458;-60
2023/04/16 10:06:43;;;;;;;8.27;4.93;;;;;;;6.60;100.00;94060.88;4986647;28;20042;-60
2023/04/16 10:09:10;;;;;;;7.93;4.63;;;;;;;6.66;100.00;94062.06;4977056;28;20330;-61
2023/04/16 10:11:38;;;;;;;8.07;4.70;;;;;;;6.70;100.00;94062.84;4987757;28;20047;-62
2023/04/16 10:14:05;;;;;;;9.07;4.63;;;;;;;6.56;100.00;94069.03;4986968;28;20069;-63
2023/04/16 10:16:32;;;;;;;8.13;4.47;;;;;;;6.33;100.00;94077.53;4988374;28;20053;-61
2023/04/16 10:18:59;;;;;;;8.55;4.65;;;;;;;6.28;100.00;94077.13;4988610;28;20038;-61
2023/04/16 10:21:32;;;;;;;8.25;5.22;;;;;;;6.57;100.00;94076.03;4988176;28;20042;-60
2023/04/16 10:24:00;;;;;;;10.90;5.80;;;;;;;6.91;100.00;94070.25;4988355;28;20053;-63
2023/04/16 10:26:29;;;;;;;10.87;5.10;;;;;;;7.09;100.00;94077.69;4988138;28;20038;-63
2023/04/16 10:28:57;;;;;;;10.00;5.57;;;;;;;6.82;100.00;94072.56;4975856;28;20513;-61
2023/04/16 10:31:25;;;;;;;9.63;5.38;;;;;;;7.04;100.00;94070.66;4991832;28;20069;-62
2023/04/16 10:33:52;;;;;;;11.27;6.55;;;;;;;6.84;100.00;94073.00;4991357;28;20364;-61
2023/04/16 10:36:23;;;;;;;11.73;6.28;;;;;;;6.66;100.00;94074.88;4992152;28;20413;-61
2023/04/16 10:38:51;;;;;;;12.87;6.97;;;;;;;6.86;100.00;94070.66;4991067;28;20784;-63
2023/04/16 10:41:19;;;;;;;13.93;7.57;;;;;;;7.20;100.00;94073.81;4985959;28;20051;-61
2023/04/16 10:43:48;;;;;;;15.30;8.57;;;;;;;7.52;100.00;94062.06;4986763;28;20061;-64
2023/04/16 10:46:45;;;;;;;17.33;8.93;;;;;;;7.85;100.00;94065.53;4982633;28;20415;-59
2023/04/16 10:49:14;;;;;;;16.48;10.10;;;;;;;7.37;100.00;94050.38;4991099;28;20050;-59
2023/04/16 10:51:41;;;;;;;17.57;9.10;;;;;;;7.36;100.00;94062.50;4991316;28;20046;-59
2023/04/16 10:54:08;;;;;;;16.45;9.27;;;;;;;7.13;100.00;94062.88;4991608;28;20046;-64
2023/04/16 10:56:36;;;;;;;17.02;9.68;;;;;;;7.26;100.00;94062.47;4991457;28;20050;-61
2023/04/16 10:59:16;;;;;;;15.90;9.02;;;;;;;7.19;100.00;94057.81;4990219;28;20042;-60
2023/04/16 11:01:44;;;;;;;16.88;9.20;;;;;;;6.91;100.00;94058.56;4991355;28;20447;-61
2023/04/16 11:04:20;;;;;;;17.57;9.37;;;;;;;6.92;100.00;94063.66;4991365;28;20627;-60
2023/04/16 11:07:14;;;;;;;17.58;9.15;;;;;;;7.23;100.00;94060.53;4990909;28;20045;-59
2023/04/16 11:10:12;;;;;;;18.40;10.40;;;;;;;7.11;100.00;94064.44;4981028;28;20054;-59
2023/04/16 11:12:43;;;;;;;18.88;10.40;;;;;;;7.46;100.00;94066.34;4982382;28;20495;-60
2023/04/16 11:15:14;;;;;;;19.77;11.07;;;;;;;7.28;100.00;94065.59;4991630;28;20061;-62
2023/04/16 11:17:46;;;;;;;19.63;11.20;;;;;;;6.96;100.00;94067.16;4991045;28;20383;-60
2023/04/16 11:20:21;;;;;;;19.77;10.70;;;;;;;7.09;100.00;94070.28;4980799;28;20049;-61
2023/04/16 11:22:49;;;;;;;22.50;11.38;;;;;;;6.88;100.00;94067.53;4990126;28;20034;-62
2023/04/16 11:25:24;;;;;;;19.80;10.07;;;;;;;7.26;100.00;94070.66;4991195;28;20406;-62
2023/04/16 11:27:52;;;;;;;20.45;11.00;;;;;;;7.20;100.00;94067.53;4990251;28;20862;-62
2023/04/16 11:30:31;;;;;;;20.23;11.20;;;;;;;7.37;100.00;94076.91;4989963;28;20042;-62
2023/04/16 11:32:58;;;;;;;20.63;10.77;;;;;;;7.05;100.00;94076.91;4990385;28;20050;-62
2023/04/16 11:35:25;;;;;;;19.90;10.48;;;;;;;7.22;100.00;94078.06;4989642;28;20042;-65